createdAt,value
2023-05-12T00:02:16.365Z,23.30
2023-05-12T00:07:21.924Z,23.30
2023-05-12T00:12:25.332Z,23.30
2023-05-12T00:17:28.393Z,23.30
2023-05-12T00:22:32.684Z,23.20
2023-05-12T00:27:35.568Z,23.30
2023-05-12T00:32:38.421Z,23.20
2023-05-12T00:37:42.680Z,23.30
2023-05-12T00:42:45.691Z,23.30
2023-05-12T00:47:48.602Z,23.20
2023-05-12T00:52:53.116Z,23.20
2023-05-12T00:57:56.669Z,23.20
2023-05-12T01:02:59.599Z,23.20
2023-05-12T01:08:04.474Z,23.20
2023-05-12T01:13:07.284Z,23.20
2023-05-12T01:18:11.929Z,23.20
2023-05-12T01:23:20.057Z,23.10
2023-05-12T01:28:24.672Z,23.20
2023-05-12T01:33:27.594Z,23.20
2023-05-12T01:38:30.541Z,23.10
2023-05-12T01:43:34.685Z,23.10
2023-05-12T01:48:37.521Z,23.20
2023-05-12T01:53:41.672Z,23.20
2023-05-12T01:58:46.198Z,23.10
2023-05-12T02:03:49.060Z,23.20
2023-05-12T02:08:52.684Z,23.10
2023-05-12T02:13:57.173Z,23.10
2023-05-12T02:19:00.372Z,23.10
2023-05-12T02:24:03.316Z,23.00
2023-05-12T02:29:07.516Z,23.10
2023-05-12T02:34:10.333Z,23.10
2023-05-12T02:39:13.494Z,23.10
2023-05-12T02:44:17.950Z,23.00
2023-05-12T02:49:21.226Z,23.00
2023-05-12T02:54:24.057Z,23.10
2023-05-12T02:59:28.765Z,23.10
2023-05-12T03:04:33.067Z,23.10
2023-05-12T03:09:36.016Z,23.00
2023-05-12T03:14:40.218Z,23.00
2023-05-12T03:19:43.393Z,23.00
2023-05-12T03:24:47.480Z,23.00
2023-05-12T03:29:52.153Z,23.00
2023-05-12T03:34:55.128Z,23.00
2023-05-12T03:39:58.590Z,23.00
2023-05-12T03:45:02.816Z,23.00
2023-05-12T03:50:07.475Z,23.00
2023-05-12T03:55:10.865Z,23.00
2023-05-12T04:00:16.214Z,23.00
2023-05-12T04:05:19.362Z,22.90
2023-05-12T04:10:23.348Z,22.90
2023-05-12T04:15:27.573Z,22.90
2023-05-12T04:20:30.601Z,22.90
2023-05-12T04:25:34.809Z,22.90
2023-05-12T04:30:40.276Z,23.00
2023-05-12T04:35:43.153Z,22.90
2023-05-12T04:40:45.943Z,22.90
2023-05-12T04:45:52.191Z,22.90
2023-05-12T04:50:55.530Z,23.00
2023-05-12T04:55:58.693Z,22.90
2023-05-12T05:01:02.926Z,22.90
2023-05-12T05:06:05.891Z,22.90
2023-05-12T05:11:09.730Z,22.90
2023-05-12T05:16:13.961Z,23.00
2023-05-12T05:21:16.873Z,23.00
2023-05-12T05:26:21.499Z,23.00
2023-05-12T05:31:28.597Z,23.00
2023-05-12T05:36:31.795Z,23.00
2023-05-12T05:41:34.696Z,23.00
2023-05-12T05:46:38.962Z,23.00
2023-05-12T05:51:41.846Z,23.00
2023-05-12T05:56:44.647Z,23.10
2023-05-12T06:01:48.851Z,23.00
2023-05-12T06:06:51.700Z,23.10
2023-05-12T06:11:54.570Z,23.10
2023-05-12T06:16:58.868Z,23.10
2023-05-12T06:22:01.777Z,23.10
2023-05-12T06:27:04.681Z,23.10
2023-05-12T06:32:09.477Z,23.10
2023-05-12T06:37:12.398Z,23.20
2023-05-12T06:42:15.549Z,23.20
2023-05-12T06:47:19.726Z,23.20
2023-05-12T06:52:23.981Z,23.20
2023-05-12T06:57:26.839Z,23.20
2023-05-12T07:02:31.330Z,23.20
2023-05-12T07:07:35.583Z,23.40
2023-05-12T07:12:39.257Z,23.30
2023-05-12T07:17:43.580Z,23.30
2023-05-12T07:22:46.497Z,23.40
2023-05-12T07:27:49.846Z,23.40
2023-05-12T07:32:54.147Z,23.50
2023-05-12T07:37:57.149Z,23.50
2023-05-12T07:42:59.970Z,23.50
2023-05-12T07:48:04.514Z,23.50
2023-05-12T07:53:07.448Z,23.50
2023-05-12T07:58:11.450Z,23.50
2023-05-12T08:03:16.318Z,23.70
2023-05-12T08:08:19.699Z,23.70
2023-05-12T08:13:23.059Z,23.70
2023-05-12T08:18:27.373Z,23.70
2023-05-12T08:23:30.205Z,23.80
2023-05-12T08:28:33.163Z,23.70
2023-05-12T08:33:37.405Z,23.70
2023-05-12T08:38:40.385Z,23.80
2023-05-12T08:43:45.340Z,23.80
2023-05-12T08:48:51.493Z,23.80
2023-05-12T08:53:54.650Z,23.80
2023-05-12T08:58:59.257Z,23.90
2023-05-12T09:04:03.945Z,23.90
2023-05-12T09:09:07.868Z,23.90
2023-05-12T09:14:20.075Z,23.90
2023-05-12T09:19:24.554Z,23.90
2023-05-12T09:24:35.043Z,23.90
2023-05-12T09:29:57.955Z,24.00
2023-05-12T09:35:11.062Z,24.00
2023-05-12T09:40:14.495Z,24.10
2023-05-12T09:45:17.344Z,24.10
2023-05-12T09:50:23.632Z,24.10
2023-05-12T09:55:26.474Z,24.00
2023-05-12T10:00:43.366Z,24.10
2023-05-12T10:05:54.854Z,24.10
2023-05-12T10:11:00.790Z,24.20
2023-05-12T10:16:03.917Z,24.20
2023-05-12T10:21:08.223Z,24.20
2023-05-12T10:26:11.499Z,24.20
2023-05-12T10:31:14.671Z,24.20
2023-05-12T10:36:20.289Z,24.30
2023-05-12T10:41:33.529Z,24.30
2023-05-12T10:46:37.153Z,24.20
2023-05-12T10:51:49.817Z,24.30
2023-05-12T10:56:55.308Z,24.30
2023-05-12T11:02:04.027Z,24.30
2023-05-12T11:07:11.710Z,24.40
2023-05-12T11:12:15.782Z,24.40
2023-05-12T11:17:18.603Z,24.40
2023-05-12T11:22:23.528Z,24.30
2023-05-12T11:27:26.452Z,24.30
2023-05-12T11:32:29.823Z,24.40
2023-05-12T11:37:39.911Z,24.40
2023-05-12T11:42:48.232Z,24.30
2023-05-12T11:47:51.215Z,24.40
2023-05-12T11:52:55.628Z,24.40
2023-05-12T11:58:00.411Z,24.40
2023-05-12T12:03:16.592Z,24.40
2023-05-12T12:08:21.001Z,24.50
2023-05-12T12:13:28.900Z,24.50
2023-05-12T12:18:31.794Z,24.50
2023-05-12T12:23:49.894Z,24.50
2023-05-12T12:28:53.977Z,24.50
2023-05-12T12:33:56.870Z,24.50
2023-05-12T12:39:01.109Z,24.50
2023-05-12T12:44:03.990Z,24.60
2023-05-12T12:49:06.896Z,24.50
2023-05-12T12:54:11.113Z,24.50
2023-05-12T12:59:13.950Z,24.60
2023-05-12T13:04:19.587Z,24.50
2023-05-12T13:09:24.436Z,24.50
2023-05-12T13:14:27.277Z,24.60
2023-05-12T13:19:31.240Z,24.60
2023-05-12T13:24:35.416Z,24.50
2023-05-12T13:29:38.481Z,24.60
2023-05-12T13:34:41.725Z,24.70
2023-05-12T13:39:45.906Z,24.70
2023-05-12T13:44:49.026Z,24.80
2023-05-12T13:49:52.237Z,24.90
2023-05-12T13:54:56.448Z,24.90
2023-05-12T13:59:59.281Z,25.00
2023-05-12T14:05:02.254Z,24.90
2023-05-12T14:10:07.590Z,24.80
2023-05-12T14:15:23.617Z,25.00
2023-05-12T14:20:29.192Z,25.10
2023-05-12T14:25:33.577Z,25.30
2023-05-12T14:30:38.216Z,25.40
2023-05-12T14:35:41.345Z,25.50
2023-05-12T14:40:47.557Z,25.60
2023-05-12T14:45:54.260Z,25.80
2023-05-12T14:50:57.788Z,25.80
2023-05-12T14:56:02.039Z,25.90
2023-05-12T15:01:06.342Z,26.10
2023-05-12T15:06:11.452Z,26.20
2023-05-12T15:11:15.922Z,26.60
2023-05-12T15:16:19.255Z,26.80
2023-05-12T15:21:22.380Z,27.50
2023-05-12T15:26:32.713Z,27.70
2023-05-12T15:31:37.729Z,27.90
2023-05-12T15:36:40.734Z,28.00
2023-05-12T15:41:44.876Z,28.20
2023-05-12T15:46:47.799Z,28.40
2023-05-12T15:51:50.787Z,29.50
2023-05-12T15:56:54.991Z,30.10
2023-05-12T16:01:58.632Z,30.20
2023-05-12T16:07:02.040Z,30.60
2023-05-12T16:12:09.229Z,29.10
2023-05-12T16:17:12.264Z,28.10
2023-05-12T16:22:15.425Z,28.00
2023-05-12T16:27:22.148Z,27.10
2023-05-12T16:32:25.016Z,26.60
2023-05-12T16:37:28.213Z,26.20
2023-05-12T16:42:32.355Z,26.10
2023-05-12T16:47:35.494Z,26.10
2023-05-12T16:52:38.430Z,26.00
2023-05-12T16:57:43.536Z,26.00
2023-05-12T17:02:46.567Z,25.70
2023-05-12T17:07:51.036Z,25.70
2023-05-12T17:12:55.230Z,25.50
2023-05-12T17:17:58.159Z,25.50
2023-05-12T17:23:01.354Z,25.30
2023-05-12T17:28:06.063Z,25.30
2023-05-12T17:33:08.895Z,25.20
2023-05-12T17:38:12.230Z,25.20
2023-05-12T17:43:16.363Z,25.10
2023-05-12T17:48:19.202Z,25.00
2023-05-12T17:53:22.041Z,25.10
2023-05-12T17:58:26.424Z,25.00
2023-05-12T18:03:29.331Z,24.90
2023-05-12T18:08:32.255Z,24.90
2023-05-12T18:13:36.456Z,24.90
2023-05-12T18:18:39.342Z,24.90
2023-05-12T18:23:42.480Z,24.80
2023-05-12T18:28:46.760Z,24.80
2023-05-12T18:33:50.353Z,24.80
2023-05-12T18:38:53.162Z,24.80
2023-05-12T18:43:58.330Z,24.70
2023-05-12T18:49:01.606Z,24.70
2023-05-12T18:54:04.834Z,24.70
2023-05-12T18:59:09.455Z,24.60
2023-05-12T19:04:12.521Z,24.60
2023-05-12T19:09:15.648Z,24.50
2023-05-12T19:14:20.238Z,24.50
2023-05-12T19:19:23.040Z,24.50
2023-05-12T19:24:26.810Z,24.50
2023-05-12T19:29:31.010Z,24.40
2023-05-12T19:34:33.970Z,24.50
2023-05-12T19:39:36.813Z,24.40
2023-05-12T19:44:40.963Z,24.40
2023-05-12T19:49:43.832Z,24.40
2023-05-12T19:54:46.802Z,24.40
2023-05-12T19:59:50.983Z,24.40
2023-05-12T20:04:53.835Z,24.40
2023-05-12T20:09:56.639Z,24.40
2023-05-12T20:15:00.819Z,24.30
2023-05-12T20:20:04.241Z,24.30
2023-05-12T20:25:07.683Z,24.30
2023-05-12T20:30:13.209Z,24.30
2023-05-12T20:35:16.728Z,24.30
2023-05-12T20:40:20.072Z,24.30
2023-05-12T20:45:24.337Z,24.20
2023-05-12T20:50:27.895Z,24.20
2023-05-12T20:55:32.943Z,24.30
2023-05-12T21:00:37.180Z,24.20
2023-05-12T21:05:41.642Z,24.20
2023-05-12T21:10:44.514Z,24.20
2023-05-12T21:15:48.693Z,24.20
2023-05-12T21:20:51.933Z,24.10
2023-05-12T21:25:54.859Z,24.10
2023-05-12T21:30:59.063Z,24.10
2023-05-12T21:36:01.968Z,24.10
2023-05-12T21:41:04.900Z,24.10
2023-05-12T21:46:09.108Z,24.20
2023-05-12T21:51:13.115Z,24.10
2023-05-12T21:56:16.534Z,24.00
2023-05-12T22:01:21.308Z,24.10
2023-05-12T22:06:24.315Z,24.10
2023-05-12T22:11:27.201Z,24.10
2023-05-12T22:16:41.210Z,24.10
2023-05-12T22:21:45.686Z,24.10
2023-05-12T22:26:48.541Z,24.00
2023-05-12T22:31:52.692Z,24.10
2023-05-12T22:36:55.711Z,24.00
2023-05-12T22:41:58.510Z,24.00
2023-05-12T22:47:02.773Z,24.00
2023-05-12T22:52:06.526Z,24.10
2023-05-12T22:57:09.302Z,24.00
2023-05-12T23:02:16.723Z,24.00
2023-05-12T23:07:19.569Z,24.00
2023-05-12T23:12:22.368Z,23.90
2023-05-12T23:17:27.434Z,24.00
2023-05-12T23:22:30.346Z,24.00
2023-05-12T23:27:33.231Z,24.00
2023-05-12T23:32:37.608Z,24.00
2023-05-12T23:37:40.572Z,23.90
2023-05-12T23:42:43.418Z,24.00
2023-05-12T23:47:47.684Z,24.00
2023-05-12T23:52:53.203Z,24.00
2023-05-12T23:57:56.077Z,24.00
